PWSweather.com
Personal Weather Stations
Station Observations
RTINEZ
TerrassaES 08226

TerrassaES 08226

Lat: 41.5762194, Lon: 2.028993700000001

Elevation: 367

Station Type: Watson W8681

www.rtinez.cat

High Low Average
Temperature 78.6°F25.9°C 63.9°F17.7°C 69.3°F20.7°C
Dew Point 60.7°F15.9°C 38.5°F3.6°C 57.0°F13.9°C
Winds 23.5 mph 37.8 kmh Calm Calm 7.0 mph WSW11.3 kmh WSW
Wind Gusts 29.8 mph48.0 kmh 2.2 mph3.5 kmh 14.0 mph22.5 kmh
Humidity 82% 26% 67%
Pressure 30.09 in1019.0 mb 28.80 in975.3 mb -
Precipitation 0.00 in0.0 mm - -
Hour Temp Dew Point Humidity Winds Wind Gusts Pressure Precip Precip Rate Daily Precip Total
12:00 AM 68.4°F20.2°C 60.5°F15.8°C 76% 3.1 mph E5.0 kmh E 9.2 mph14.8 kmh 29.96 in1014.6 mb 0.00 in0.0 mm 0.00 in0.0 mm 0.00 in0.0 mm
12:15 AM 68.2°F20.1°C 59.6°F15.3°C 74% 1.6 mph E2.6 kmh E 9.8 mph15.8 kmh 29.98 in1015.2 mb 0.00 in0.0 mm 0.00 in0.0 mm 0.00 in0.0 mm
12:30 AM 68.0°F20.0°C 59.4°F15.2°C 74% 4.5 mph E7.2 kmh E 6.9 mph11.1 kmh 29.98 in1015.2 mb 0.00 in0.0 mm 0.00 in0.0 mm 0.00 in0.0 mm
12:45 AM 67.6°F19.8°C 59.1°F15.1°C 74% 2.2 mph SE3.5 kmh SE 7.6 mph12.2 kmh 29.98 in1015.2 mb 0.00 in0.0 mm 0.00 in0.0 mm 0.00 in0.0 mm
01:00 AM 67.5°F19.7°C 58.9°F14.9°C 74% 2.2 mph E3.5 kmh E 6.9 mph11.1 kmh 29.98 in1015.2 mb 0.00 in0.0 mm 0.00 in0.0 mm 0.00 in0.0 mm
01:15 AM 67.5°F19.7°C 58.5°F14.7°C 73% 1.6 mph E2.6 kmh E 4.5 mph7.2 kmh 29.99 in1015.6 mb 0.00 in0.0 mm 0.00 in0.0 mm 0.00 in0.0 mm
01:30 AM 67.3°F19.6°C 58.4°F14.7°C 73% 1.6 mph E2.6 kmh E 5.4 mph8.7 kmh 29.98 in1015.2 mb 0.00 in0.0 mm 0.00 in0.0 mm 0.00 in0.0 mm
01:45 AM 67.1°F19.5°C 58.2°F14.6°C 73% Calm Calm 3.8 mph6.1 kmh 29.99 in1015.6 mb 0.00 in0.0 mm 0.00 in0.0 mm 0.00 in0.0 mm
02:00 AM 67.3°F19.6°C 58.7°F14.8°C 74% 0.7 mph ENE1.1 kmh ENE 3.1 mph5.0 kmh 29.99 in1015.6 mb 0.00 in0.0 mm 0.00 in0.0 mm 0.00 in0.0 mm
02:15 AM 67.1°F19.5°C 58.9°F14.9°C 75% 0.7 mph E1.1 kmh E 2.2 mph3.5 kmh 29.99 in1015.6 mb 0.00 in0.0 mm 0.00 in0.0 mm 0.00 in0.0 mm
02:30 AM 66.9°F19.4°C 59.1°F15.1°C 76% 0.7 mph ESE1.1 kmh ESE 2.2 mph3.5 kmh 30.00 in1015.9 mb 0.00 in0.0 mm 0.00 in0.0 mm 0.00 in0.0 mm
02:45 AM 66.9°F19.4°C 59.5°F15.3°C 77% 0.7 mph ESE1.1 kmh ESE 3.1 mph5.0 kmh 29.99 in1015.6 mb 0.00 in0.0 mm 0.00 in0.0 mm 0.00 in0.0 mm
03:00 AM 66.6°F19.2°C 59.9°F15.5°C 79% 3.1 mph SSE5.0 kmh SSE 5.4 mph8.7 kmh 30.00 in1015.9 mb 0.00 in0.0 mm 0.00 in0.0 mm 0.00 in0.0 mm
03:15 AM 65.3°F18.5°C 59.7°F15.4°C 82% 3.8 mph S6.1 kmh S 6.0 mph9.7 kmh 30.01 in1016.3 mb 0.00 in0.0 mm 0.00 in0.0 mm 0.00 in0.0 mm
03:30 AM 65.3°F18.5°C 59.3°F15.2°C 81% 1.6 mph S2.6 kmh S 4.5 mph7.2 kmh 30.00 in1015.9 mb 0.00 in0.0 mm 0.00 in0.0 mm 0.00 in0.0 mm
03:45 AM 65.3°F18.5°C 59.0°F15.0°C 80% 1.6 mph S2.6 kmh S 6.0 mph9.7 kmh 30.00 in1015.9 mb 0.00 in0.0 mm 0.00 in0.0 mm 0.00 in0.0 mm
04:00 AM 65.3°F18.5°C 58.6°F14.8°C 79% 2.2 mph S3.5 kmh S 5.4 mph8.7 kmh 30.01 in1016.3 mb 0.00 in0.0 mm 0.00 in0.0 mm 0.00 in0.0 mm
04:15 AM 65.3°F18.5°C 58.6°F14.8°C 79% 3.8 mph S6.1 kmh S 4.5 mph7.2 kmh 30.01 in1016.3 mb 0.00 in0.0 mm 0.00 in0.0 mm 0.00 in0.0 mm
04:30 AM 64.9°F18.3°C 57.9°F14.4°C 78% 2.2 mph WSW3.5 kmh WSW 4.5 mph7.2 kmh 30.01 in1016.3 mb 0.00 in0.0 mm 0.00 in0.0 mm 0.00 in0.0 mm
04:45 AM 64.8°F18.2°C 57.8°F14.3°C 78% 3.1 mph WSW5.0 kmh WSW 6.9 mph11.1 kmh 30.01 in1016.3 mb 0.00 in0.0 mm 0.00 in0.0 mm 0.00 in0.0 mm
05:00 AM 64.6°F18.1°C 57.6°F14.2°C 78% 3.1 mph WSW5.0 kmh WSW 3.8 mph6.1 kmh 30.01 in1016.3 mb 0.00 in0.0 mm 0.00 in0.0 mm 0.00 in0.0 mm
05:15 AM 64.8°F18.2°C 57.8°F14.3°C 78% 2.2 mph WSW3.5 kmh WSW 3.8 mph6.1 kmh 30.02 in1016.6 mb 0.00 in0.0 mm 0.00 in0.0 mm 0.00 in0.0 mm
05:30 AM 64.4°F18.0°C 57.8°F14.3°C 79% 2.2 mph NW3.5 kmh NW 4.5 mph7.2 kmh 30.02 in1016.6 mb 0.00 in0.0 mm 0.00 in0.0 mm 0.00 in0.0 mm
05:45 AM 64.2°F17.9°C 57.9°F14.4°C 80% 2.2 mph WNW3.5 kmh WNW 4.5 mph7.2 kmh 30.02 in1016.6 mb 0.00 in0.0 mm 0.00 in0.0 mm 0.00 in0.0 mm
06:00 AM 64.2°F17.9°C 57.9°F14.4°C 80% 3.8 mph WNW6.1 kmh WNW 4.5 mph7.2 kmh 30.03 in1016.9 mb 0.00 in0.0 mm 0.00 in0.0 mm 0.00 in0.0 mm
06:15 AM 63.9°F17.7°C 57.2°F14.0°C 79% 3.1 mph NW5.0 kmh NW 4.5 mph7.2 kmh 30.03 in1016.9 mb 0.00 in0.0 mm 0.00 in0.0 mm 0.00 in0.0 mm
06:30 AM 63.9°F17.7°C 57.6°F14.2°C 80% 2.2 mph NW3.5 kmh NW 3.8 mph6.1 kmh 30.04 in1017.3 mb 0.00 in0.0 mm 0.00 in0.0 mm 0.00 in0.0 mm
06:45 AM 64.2°F17.9°C 57.6°F14.2°C 79% 1.6 mph NNW2.6 kmh NNW 3.8 mph6.1 kmh 30.04 in1017.3 mb 0.00 in0.0 mm 0.00 in0.0 mm 0.00 in0.0 mm
07:00 AM 65.3°F18.5°C 58.3°F14.6°C 78% 0.7 mph WNW1.1 kmh WNW 3.1 mph5.0 kmh 30.05 in1017.6 mb 0.00 in0.0 mm 0.00 in0.0 mm 0.00 in0.0 mm
07:15 AM 66.7°F19.3°C 58.2°F14.6°C 74% 1.6 mph SW2.6 kmh SW 3.1 mph5.0 kmh 30.06 in1017.9 mb 0.00 in0.0 mm 0.00 in0.0 mm 0.00 in0.0 mm
07:30 AM 66.0°F18.9°C 57.5°F14.2°C 74% 3.1 mph W5.0 kmh W 6.0 mph9.7 kmh 30.06 in1017.9 mb 0.00 in0.0 mm 0.00 in0.0 mm 0.00 in0.0 mm
07:45 AM 66.2°F19.0°C 57.7°F14.3°C 74% 3.1 mph WSW5.0 kmh WSW 6.0 mph9.7 kmh 30.06 in1017.9 mb 0.00 in0.0 mm 0.00 in0.0 mm 0.00 in0.0 mm
08:00 AM 66.7°F19.3°C 58.2°F14.6°C 74% 3.8 mph W6.1 kmh W 6.0 mph9.7 kmh 30.07 in1018.3 mb 0.00 in0.0 mm 0.00 in0.0 mm 0.00 in0.0 mm
08:15 AM 66.9°F19.4°C 58.8°F14.9°C 75% 5.4 mph WSW8.7 kmh WSW 8.3 mph13.4 kmh 30.07 in1018.3 mb 0.00 in0.0 mm 0.00 in0.0 mm 0.00 in0.0 mm
08:30 AM 66.9°F19.4°C 58.8°F14.9°C 75% 3.1 mph W5.0 kmh W 7.6 mph12.2 kmh 30.07 in1018.3 mb 0.00 in0.0 mm 0.00 in0.0 mm 0.00 in0.0 mm
08:45 AM 67.5°F19.7°C 59.3°F15.2°C 75% 4.5 mph W7.2 kmh W 6.9 mph11.1 kmh 30.07 in1018.3 mb 0.00 in0.0 mm 0.00 in0.0 mm 0.00 in0.0 mm
09:00 AM 67.5°F19.7°C 58.9°F14.9°C 74% 5.4 mph WSW8.7 kmh WSW 7.6 mph12.2 kmh 30.08 in1018.6 mb 0.00 in0.0 mm 0.00 in0.0 mm 0.00 in0.0 mm
09:15 AM 68.4°F20.2°C 59.4°F15.2°C 73% 6.9 mph W11.1 kmh W 12.1 mph19.5 kmh 30.09 in1019.0 mb 0.00 in0.0 mm 0.00 in0.0 mm 0.00 in0.0 mm
09:30 AM 69.8°F21.0°C 59.2°F15.1°C 69% 6.0 mph WNW9.7 kmh WNW 11.4 mph18.3 kmh 30.09 in1019.0 mb 0.00 in0.0 mm 0.00 in0.0 mm 0.00 in0.0 mm
09:45 AM 69.8°F21.0°C 59.2°F15.1°C 69% 9.2 mph WSW14.8 kmh WSW 14.5 mph23.3 kmh 30.09 in1019.0 mb 0.00 in0.0 mm 0.00 in0.0 mm 0.00 in0.0 mm
10:00 AM 70.5°F21.4°C 58.6°F14.8°C 66% 9.2 mph W14.8 kmh W 15.2 mph24.5 kmh 30.09 in1019.0 mb 0.00 in0.0 mm 0.00 in0.0 mm 0.00 in0.0 mm
10:15 AM 70.5°F21.4°C 58.2°F14.6°C 65% 10.7 mph W17.2 kmh W 21.3 mph34.3 kmh 30.09 in1019.0 mb 0.00 in0.0 mm 0.00 in0.0 mm 0.00 in0.0 mm
10:30 AM 70.9°F21.6°C 57.2°F14.0°C 62% 12.1 mph W19.5 kmh W 20.6 mph33.2 kmh 28.86 in977.3 mb 0.00 in0.0 mm 0.00 in0.0 mm 0.00 in0.0 mm
10:45 AM 71.1°F21.7°C 57.0°F13.9°C 61% 11.4 mph W18.3 kmh W 19.0 mph30.6 kmh 28.86 in977.3 mb 0.00 in0.0 mm 0.00 in0.0 mm 0.00 in0.0 mm
11:00 AM 72.9°F22.7°C 55.8°F13.2°C 55% 6.9 mph W11.1 kmh W 19.0 mph30.6 kmh 28.86 in977.3 mb 0.00 in0.0 mm 0.00 in0.0 mm 0.00 in0.0 mm
11:15 AM 73.0°F22.8°C 54.9°F12.7°C 53% 10.7 mph WNW17.2 kmh WNW 19.7 mph31.7 kmh 30.07 in1018.3 mb 0.00 in0.0 mm 0.00 in0.0 mm 0.00 in0.0 mm
11:30 AM 73.6°F23.1°C 55.4°F13.0°C 53% 10.7 mph W17.2 kmh W 18.3 mph29.5 kmh 30.07 in1018.3 mb 0.00 in0.0 mm 0.00 in0.0 mm 0.00 in0.0 mm
11:45 AM 74.5°F23.6°C 51.8°F11.0°C 45% 6.0 mph NW9.7 kmh NW 14.5 mph23.3 kmh 28.84 in976.6 mb 0.00 in0.0 mm 0.00 in0.0 mm 0.00 in0.0 mm
12:00 PM 74.1°F23.4°C 49.6°F9.8°C 42% 10.7 mph W17.2 kmh W 25.9 mph41.7 kmh 30.06 in1017.9 mb 0.00 in0.0 mm 0.00 in0.0 mm 0.00 in0.0 mm
12:15 PM 75.0°F23.9°C 44.8°F7.1°C 34% 8.3 mph WNW13.4 kmh WNW 16.8 mph27.0 kmh 28.83 in976.3 mb 0.00 in0.0 mm 0.00 in0.0 mm 0.00 in0.0 mm
12:30 PM 75.7°F24.3°C 43.0°F6.1°C 31% 23.5 mph W37.8 kmh W 29.8 mph48.0 kmh 28.82 in976.0 mb 0.00 in0.0 mm 0.00 in0.0 mm 0.00 in0.0 mm
12:45 PM 75.7°F24.3°C 42.1°F5.6°C 30% 13.6 mph WNW21.9 kmh WNW 29.8 mph48.0 kmh 30.04 in1017.3 mb 0.00 in0.0 mm 0.00 in0.0 mm 0.00 in0.0 mm
01:00 PM 78.6°F25.9°C 44.6°F7.0°C 30% 7.6 mph W12.2 kmh W 26.6 mph42.8 kmh 28.81 in975.6 mb 0.00 in0.0 mm 0.00 in0.0 mm 0.00 in0.0 mm
01:15 PM 78.6°F25.9°C 41.9°F5.5°C 27% 17.4 mph W28.0 kmh W 23.5 mph37.8 kmh 28.81 in975.6 mb 0.00 in0.0 mm 0.00 in0.0 mm 0.00 in0.0 mm
01:30 PM 75.7°F24.3°C 38.5°F3.6°C 26% 13.0 mph W20.9 kmh W 24.4 mph39.3 kmh 30.04 in1017.3 mb 0.00 in0.0 mm 0.00 in0.0 mm 0.00 in0.0 mm
01:45 PM 78.6°F25.9°C 40.9°F4.9°C 26% 13.0 mph WNW20.9 kmh WNW 29.8 mph48.0 kmh 30.04 in1017.3 mb 0.00 in0.0 mm 0.00 in0.0 mm 0.00 in0.0 mm
02:00 PM 75.7°F24.3°C 38.5°F3.6°C 26% 14.5 mph NW23.3 kmh NW 25.9 mph41.7 kmh 28.81 in975.6 mb 0.00 in0.0 mm 0.00 in0.0 mm 0.00 in0.0 mm
02:15 PM 75.6°F24.2°C 56.2°F13.4°C 51% 15.9 mph W25.6 kmh W 23.5 mph37.8 kmh 30.03 in1016.9 mb 0.00 in0.0 mm 0.00 in0.0 mm 0.00 in0.0 mm
02:30 PM 75.7°F24.3°C 56.9°F13.8°C 52% 13.6 mph WSW21.9 kmh WSW 25.9 mph41.7 kmh 30.03 in1016.9 mb 0.00 in0.0 mm 0.00 in0.0 mm 0.00 in0.0 mm
02:45 PM 75.7°F24.3°C 55.3°F12.9°C 49% 10.7 mph W17.2 kmh W 24.4 mph39.3 kmh 30.03 in1016.9 mb 0.00 in0.0 mm 0.00 in0.0 mm 0.00 in0.0 mm
03:00 PM 75.7°F24.3°C 56.4°F13.6°C 51% 20.6 mph NW33.2 kmh NW 25.1 mph40.4 kmh 28.80 in975.3 mb 0.00 in0.0 mm 0.00 in0.0 mm 0.00 in0.0 mm
03:15 PM 75.7°F24.3°C 56.4°F13.6°C 51% 15.2 mph W24.5 kmh W 25.9 mph41.7 kmh 28.80 in975.3 mb 0.00 in0.0 mm 0.00 in0.0 mm 0.00 in0.0 mm
03:30 PM 74.7°F23.7°C 57.5°F14.2°C 55% 17.4 mph WNW28.0 kmh WNW 26.6 mph42.8 kmh 30.02 in1016.6 mb 0.00 in0.0 mm 0.00 in0.0 mm 0.00 in0.0 mm
03:45 PM 74.1°F23.4°C 57.5°F14.2°C 56% 16.8 mph W27.0 kmh W 27.3 mph43.9 kmh 28.80 in975.3 mb 0.00 in0.0 mm 0.00 in0.0 mm 0.00 in0.0 mm
04:00 PM 74.1°F23.4°C 57.9°F14.4°C 57% 13.6 mph W21.9 kmh W 25.9 mph41.7 kmh 28.80 in975.3 mb 0.00 in0.0 mm 0.00 in0.0 mm 0.00 in0.0 mm
04:15 PM 73.2°F22.9°C 57.6°F14.2°C 58% 15.2 mph WNW24.5 kmh WNW 24.4 mph39.3 kmh 30.02 in1016.6 mb 0.00 in0.0 mm 0.00 in0.0 mm 0.00 in0.0 mm
04:30 PM 73.2°F22.9°C 58.1°F14.5°C 59% 8.3 mph WSW13.4 kmh WSW 20.6 mph33.2 kmh 28.80 in975.3 mb 0.00 in0.0 mm 0.00 in0.0 mm 0.00 in0.0 mm
04:45 PM 72.7°F22.6°C 57.6°F14.2°C 59% 14.5 mph WSW23.3 kmh WSW 25.1 mph40.4 kmh 28.80 in975.3 mb 0.00 in0.0 mm 0.00 in0.0 mm 0.00 in0.0 mm
05:00 PM 71.4°F21.9°C 57.7°F14.3°C 62% 14.5 mph WSW23.3 kmh WSW 25.9 mph41.7 kmh 30.02 in1016.6 mb 0.00 in0.0 mm 0.00 in0.0 mm 0.00 in0.0 mm
05:15 PM 72.0°F22.2°C 57.8°F14.3°C 61% 14.5 mph W23.3 kmh W 24.4 mph39.3 kmh 28.81 in975.6 mb 0.00 in0.0 mm 0.00 in0.0 mm 0.00 in0.0 mm
05:30 PM 70.7°F21.5°C 58.8°F14.9°C 66% 17.4 mph WSW28.0 kmh WSW 25.9 mph41.7 kmh 30.02 in1016.6 mb 0.00 in0.0 mm 0.00 in0.0 mm 0.00 in0.0 mm
05:45 PM 70.7°F21.5°C 58.8°F14.9°C 66% 11.4 mph W18.3 kmh W 25.9 mph41.7 kmh 28.81 in975.6 mb 0.00 in0.0 mm 0.00 in0.0 mm 0.00 in0.0 mm
06:00 PM 70.3°F21.3°C 58.9°F14.9°C 67% 14.5 mph WSW23.3 kmh WSW 25.9 mph41.7 kmh 28.80 in975.3 mb 0.00 in0.0 mm 0.00 in0.0 mm 0.00 in0.0 mm
06:15 PM 70.0°F21.1°C 58.5°F14.7°C 67% 15.9 mph WNW25.6 kmh WNW 24.4 mph39.3 kmh 28.81 in975.6 mb 0.00 in0.0 mm 0.00 in0.0 mm 0.00 in0.0 mm
06:30 PM 69.8°F21.0°C 59.2°F15.1°C 69% 13.0 mph WNW20.9 kmh WNW 22.1 mph35.6 kmh 30.03 in1016.9 mb 0.00 in0.0 mm 0.00 in0.0 mm 0.00 in0.0 mm
06:45 PM 69.6°F20.9°C 59.4°F15.2°C 70% 14.5 mph WNW23.3 kmh WNW 22.1 mph35.6 kmh 28.80 in975.3 mb 0.00 in0.0 mm 0.00 in0.0 mm 0.00 in0.0 mm
07:00 PM 69.3°F20.7°C 59.5°F15.3°C 71% 12.1 mph W19.5 kmh W 22.1 mph35.6 kmh 28.81 in975.6 mb 0.00 in0.0 mm 0.00 in0.0 mm 0.00 in0.0 mm
07:15 PM 68.9°F20.5°C 59.5°F15.3°C 72% 14.5 mph WSW23.3 kmh WSW 19.7 mph31.7 kmh 30.03 in1016.9 mb 0.00 in0.0 mm 0.00 in0.0 mm 0.00 in0.0 mm
07:30 PM 68.9°F20.5°C 59.5°F15.3°C 72% 6.0 mph W9.7 kmh W 17.4 mph28.0 kmh 30.03 in1016.9 mb 0.00 in0.0 mm 0.00 in0.0 mm 0.00 in0.0 mm
07:45 PM 68.7°F20.4°C 59.7°F15.4°C 73% 12.1 mph W19.5 kmh W 19.7 mph31.7 kmh 28.82 in976.0 mb 0.00 in0.0 mm 0.00 in0.0 mm 0.00 in0.0 mm
08:00 PM 68.5°F20.3°C 59.9°F15.5°C 74% 6.0 mph WSW9.7 kmh WSW 17.4 mph28.0 kmh 30.05 in1017.6 mb 0.00 in0.0 mm 0.00 in0.0 mm 0.00 in0.0 mm
08:15 PM 68.4°F20.2°C 59.8°F15.4°C 74% 3.1 mph W5.0 kmh W 13.6 mph21.9 kmh 30.05 in1017.6 mb 0.00 in0.0 mm 0.00 in0.0 mm 0.00 in0.0 mm
08:30 PM 68.2°F20.1°C 60.0°F15.6°C 75% 5.4 mph W8.7 kmh W 10.7 mph17.2 kmh 28.82 in976.0 mb 0.00 in0.0 mm 0.00 in0.0 mm 0.00 in0.0 mm
08:45 PM 68.2°F20.1°C 60.0°F15.6°C 75% 5.4 mph W8.7 kmh W 14.5 mph23.3 kmh 28.82 in976.0 mb 0.00 in0.0 mm 0.00 in0.0 mm 0.00 in0.0 mm
09:00 PM 68.0°F20.0°C 60.2°F15.7°C 76% 4.5 mph WSW7.2 kmh WSW 11.4 mph18.3 kmh 28.82 in976.0 mb 0.00 in0.0 mm 0.00 in0.0 mm 0.00 in0.0 mm
09:15 PM 67.8°F19.9°C 60.4°F15.8°C 77% 0.7 mph WNW1.1 kmh WNW 9.2 mph14.8 kmh 30.05 in1017.6 mb 0.00 in0.0 mm 0.00 in0.0 mm 0.00 in0.0 mm
09:30 PM 67.5°F19.7°C 60.4°F15.8°C 78% 3.1 mph WNW5.0 kmh WNW 7.6 mph12.2 kmh 28.83 in976.3 mb 0.00 in0.0 mm 0.00 in0.0 mm 0.00 in0.0 mm
09:45 PM 67.3°F19.6°C 60.6°F15.9°C 79% 3.1 mph WNW5.0 kmh WNW 9.8 mph15.8 kmh 28.83 in976.3 mb 0.00 in0.0 mm 0.00 in0.0 mm 0.00 in0.0 mm
10:00 PM 67.1°F19.5°C 60.7°F15.9°C 80% 3.8 mph NW6.1 kmh NW 7.6 mph12.2 kmh 30.05 in1017.6 mb 0.00 in0.0 mm 0.00 in0.0 mm 0.00 in0.0 mm
10:15 PM 66.9°F19.4°C 60.6°F15.9°C 80% 3.8 mph WNW6.1 kmh WNW 9.8 mph15.8 kmh 30.06 in1017.9 mb 0.00 in0.0 mm 0.00 in0.0 mm 0.00 in0.0 mm
10:30 PM 66.7°F19.3°C 60.7°F15.9°C 81% 6.0 mph WNW9.7 kmh WNW 6.9 mph11.1 kmh 28.83 in976.3 mb 0.00 in0.0 mm 0.00 in0.0 mm 0.00 in0.0 mm
10:45 PM 66.7°F19.3°C 60.7°F15.9°C 81% 3.8 mph WNW6.1 kmh WNW 7.6 mph12.2 kmh 30.05 in1017.6 mb 0.00 in0.0 mm 0.00 in0.0 mm 0.00 in0.0 mm
11:00 PM 66.6°F19.2°C 60.2°F15.7°C 80% 1.6 mph W2.6 kmh W 6.9 mph11.1 kmh 28.82 in976.0 mb 0.00 in0.0 mm 0.00 in0.0 mm 0.00 in0.0 mm
11:15 PM 66.6°F19.2°C 60.2°F15.7°C 80% 3.8 mph W6.1 kmh W 6.0 mph9.7 kmh 28.82 in976.0 mb 0.00 in0.0 mm 0.00 in0.0 mm 0.00 in0.0 mm
11:30 PM 66.2°F19.0°C 59.9°F15.5°C 80% 4.5 mph WNW7.2 kmh WNW 6.9 mph11.1 kmh 30.04 in1017.3 mb 0.00 in0.0 mm 0.00 in0.0 mm 0.00 in0.0 mm
11:45 PM 66.2°F19.0°C 59.5°F15.3°C 79% 3.1 mph WNW5.0 kmh WNW 7.6 mph12.2 kmh 28.81 in975.6 mb 0.00 in0.0 mm 0.00 in0.0 mm 0.00 in0.0 mm